createdAt,value
2023-02-04T00:00:41.940Z,97611.34
2023-02-04T00:03:12.010Z,97624.31
2023-02-04T00:05:40.740Z,97592.81
2023-02-04T00:08:12.294Z,97630.25
2023-02-04T00:10:41.057Z,97617.81
2023-02-04T00:13:09.258Z,97627.63
2023-02-04T00:15:37.406Z,97607.56
2023-02-04T00:18:05.772Z,97566.25
2023-02-04T00:20:35.441Z,97591.19
2023-02-04T00:23:04.230Z,97589.63
2023-02-04T00:25:32.435Z,97612.81
2023-02-04T00:28:00.654Z,97578.56
2023-02-04T00:30:29.823Z,97656.78
2023-02-04T00:32:58.154Z,97586.81
2023-02-04T00:35:26.844Z,97566.06
2023-02-04T00:37:56.682Z,97649.81
2023-02-04T00:40:24.827Z,97596.34
2023-02-04T00:42:53.000Z,97594.69
2023-02-04T00:45:21.499Z,97632.66
2023-02-04T00:47:49.691Z,97618.97
2023-02-04T00:50:19.029Z,97583.91
2023-02-04T00:52:47.270Z,97608.78
2023-02-04T00:55:18.235Z,97564.09
2023-02-04T00:57:47.675Z,97644.78
2023-02-04T01:00:18.867Z,97605.84
2023-02-04T01:05:39.575Z,97635.19
2023-02-04T01:08:07.762Z,97624.13
2023-02-04T01:10:37.945Z,97628.09
2023-02-04T01:13:08.337Z,97667.16
2023-02-04T01:15:36.798Z,97518.91
2023-02-04T01:18:05.095Z,97681.13
2023-02-04T01:20:33.570Z,97662.44
2023-02-04T01:23:01.727Z,97672.34
2023-02-04T01:25:29.846Z,97662.44
2023-02-04T01:27:59.493Z,97647.28
2023-02-04T01:30:27.728Z,97671.78
2023-02-04T01:32:57.321Z,97642.50
2023-02-04T01:35:25.520Z,97685.47
2023-02-04T01:37:53.744Z,97606.81
2023-02-04T01:40:22.231Z,97651.56
2023-02-04T01:42:50.423Z,97654.34
2023-02-04T01:45:20.288Z,97687.50
2023-02-04T01:47:49.121Z,97582.53
2023-02-04T01:50:19.157Z,97656.34
2023-02-04T01:52:48.187Z,97685.66
2023-02-04T01:55:23.798Z,97671.56
2023-02-04T01:57:53.298Z,97663.09
2023-02-04T02:00:27.949Z,97688.88
2023-02-04T02:02:56.539Z,97655.38
2023-02-04T02:05:28.976Z,97656.91
2023-02-04T02:08:01.951Z,97677.34
2023-02-04T02:10:31.449Z,97682.53
2023-02-04T02:13:00.567Z,97687.44
2023-02-04T02:15:55.098Z,97668.56
2023-02-04T02:18:25.246Z,97683.47
2023-02-04T02:20:53.796Z,97668.25
2023-02-04T02:23:44.078Z,97708.91
2023-02-04T02:26:12.848Z,97690.44
2023-02-04T02:28:41.372Z,97643.44
2023-02-04T02:31:10.227Z,97703.47
2023-02-04T02:33:38.644Z,97754.09
2023-02-04T02:36:07.724Z,97651.16
2023-02-04T02:38:35.904Z,97657.34
2023-02-04T02:41:08.945Z,97721.03
2023-02-04T02:43:38.163Z,97647.16
2023-02-04T02:46:07.046Z,97737.41
2023-02-04T02:48:35.307Z,97734.25
2023-02-04T02:51:03.507Z,97746.34
2023-02-04T02:53:33.146Z,97770.91
2023-02-04T02:56:04.590Z,97750.25
2023-02-04T02:58:37.303Z,97773.63
2023-02-04T03:01:08.772Z,97773.78
2023-02-04T03:03:43.014Z,97782.91
2023-02-04T03:06:16.300Z,97721.97
2023-02-04T03:08:45.976Z,97486.28
2023-02-04T03:11:14.146Z,97762.38
2023-02-04T03:13:44.605Z,97772.03
2023-02-04T03:16:12.898Z,97762.56
2023-02-04T03:18:41.341Z,97705.81
2023-02-04T03:21:13.458Z,97804.06
2023-02-04T03:23:41.928Z,97751.75
2023-02-04T03:26:10.223Z,97858.22
2023-02-04T03:28:44.535Z,97842.75
2023-02-04T03:31:13.447Z,97829.19
2023-02-04T03:33:42.577Z,97806.50
2023-02-04T03:36:11.136Z,97835.31
2023-02-04T03:38:39.707Z,97798.66
2023-02-04T03:41:07.876Z,97952.50
2023-02-04T03:43:36.104Z,97834.94
2023-02-04T03:46:06.217Z,97850.78
2023-02-04T03:48:34.420Z,97838.84
2023-02-04T03:51:02.552Z,97790.47
2023-02-04T03:53:30.779Z,97839.59
2023-02-04T03:55:59.017Z,97830.09
2023-02-04T03:58:27.655Z,97824.50
2023-02-04T04:00:55.858Z,97785.72
2023-02-04T04:03:25.447Z,97847.31
2023-02-04T04:05:53.631Z,97776.69
2023-02-04T04:08:21.847Z,97887.78
2023-02-04T04:10:50.025Z,97823.41
2023-02-04T04:13:18.278Z,97931.38
2023-02-04T04:15:46.502Z,97888.81
2023-02-04T04:18:14.717Z,97858.22
2023-02-04T04:20:44.254Z,97853.00
2023-02-04T04:23:12.477Z,97877.06
2023-02-04T04:25:40.695Z,97917.00
2023-02-04T04:28:08.966Z,97871.31
2023-02-04T04:30:37.177Z,97865.72
2023-02-04T04:33:05.477Z,97869.19
2023-02-04T04:35:34.824Z,97891.41
2023-02-04T04:38:04.829Z,97867.78
2023-02-04T04:40:33.684Z,97857.28
2023-02-04T04:43:02.045Z,97899.91
2023-02-04T04:45:30.337Z,97826.34
2023-02-04T04:47:58.524Z,97891.22
2023-02-04T04:50:27.054Z,97889.03
2023-02-04T04:52:55.250Z,97867.13
2023-02-04T04:55:24.813Z,97972.44
2023-02-04T04:57:53.043Z,97914.59
2023-02-04T05:00:22.878Z,97914.41
2023-02-04T05:02:51.059Z,97837.53
2023-02-04T05:05:21.501Z,97846.84
2023-02-04T05:07:49.747Z,97912.94
2023-02-04T05:10:19.102Z,97931.63
2023-02-04T05:12:48.682Z,97863.41
2023-02-04T05:15:17.073Z,97901.84
2023-02-04T05:17:45.320Z,97908.06
2023-02-04T05:20:13.813Z,97902.94
2023-02-04T05:22:42.061Z,97936.19
2023-02-04T05:25:10.805Z,97919.22
2023-02-04T05:27:39.074Z,97889.06
2023-02-04T05:30:11.415Z,97856.09
2023-02-04T05:32:39.636Z,97865.63
2023-02-04T05:35:08.801Z,97933.56
2023-02-04T05:37:37.652Z,97878.41
2023-02-04T05:40:07.377Z,97882.19
2023-02-04T05:42:35.608Z,97911.78
2023-02-04T05:45:03.789Z,97905.41
2023-02-04T05:47:33.514Z,97894.28
2023-02-04T05:50:01.816Z,97912.03
2023-02-04T05:52:30.352Z,97949.88
2023-02-04T05:54:58.548Z,97942.84
2023-02-04T05:57:26.834Z,97834.84
2023-02-04T05:59:55.141Z,97929.16
2023-02-04T06:02:23.314Z,97950.09
2023-02-04T06:04:52.873Z,97938.50
2023-02-04T06:07:21.164Z,97990.34
2023-02-04T06:09:49.313Z,97909.63
2023-02-04T06:12:17.624Z,97912.13
2023-02-04T06:14:45.795Z,97951.94
2023-02-04T06:17:14.038Z,97989.38
2023-02-04T06:19:42.242Z,97994.50
2023-02-04T06:22:11.842Z,97942.09
2023-02-04T06:24:40.062Z,97987.75
2023-02-04T06:27:08.262Z,98025.47
2023-02-04T06:29:36.754Z,97950.66
2023-02-04T06:32:05.313Z,98042.50
2023-02-04T06:34:33.503Z,97966.59
2023-02-04T06:37:01.751Z,97932.44
2023-02-04T06:39:31.384Z,98006.63
2023-02-04T06:41:59.785Z,97973.59
2023-02-04T06:44:27.997Z,98012.59
2023-02-04T06:46:56.221Z,97977.25
2023-02-04T06:49:25.116Z,98028.16
2023-02-04T06:51:55.223Z,98010.41
2023-02-04T06:54:24.297Z,97984.84
2023-02-04T06:56:53.937Z,98005.84
2023-02-04T06:59:22.211Z,98000.47
2023-02-04T07:01:58.188Z,98015.97
2023-02-04T07:04:31.454Z,98020.28
2023-02-04T07:07:34.185Z,98040.59
2023-02-04T07:10:02.838Z,98007.16
2023-02-04T07:12:32.467Z,98045.47
2023-02-04T07:15:01.463Z,98044.47
2023-02-04T07:17:29.682Z,98029.34
2023-02-04T07:19:57.878Z,98027.84
2023-02-04T07:22:26.092Z,98025.03
2023-02-04T07:24:54.296Z,98036.97
2023-02-04T07:27:22.566Z,98088.84
2023-02-04T07:29:52.122Z,98004.03
2023-02-04T07:32:20.424Z,98057.19
2023-02-04T07:34:48.883Z,98071.19
2023-02-04T07:37:17.104Z,98026.44
2023-02-04T07:39:45.320Z,98059.09
2023-02-04T07:42:13.486Z,98085.09
2023-02-04T07:44:53.152Z,98025.56
2023-02-04T07:47:21.362Z,98085.91
2023-02-04T07:49:49.669Z,98059.44
2023-02-04T07:52:17.818Z,98057.91
2023-02-04T07:54:46.005Z,98047.53
2023-02-04T07:57:14.590Z,98076.91
2023-02-04T07:59:42.790Z,98110.25
2023-02-04T08:02:12.740Z,98202.78
2023-02-04T08:04:41.281Z,98116.72
2023-02-04T08:07:09.452Z,98104.19
2023-02-04T08:09:37.624Z,98126.16
2023-02-04T08:12:06.694Z,98123.19
2023-02-04T08:14:34.909Z,98111.09
2023-02-04T08:17:03.166Z,98117.81
2023-02-04T08:19:32.719Z,98147.09
2023-02-04T08:22:00.907Z,98069.31
2023-02-04T08:24:29.125Z,98131.16
2023-02-04T08:26:58.327Z,98122.34
2023-02-04T08:29:26.808Z,98143.69
2023-02-04T08:31:55.271Z,98157.38
2023-02-04T08:34:23.681Z,98159.53
2023-02-04T08:36:53.223Z,98171.66
2023-02-04T08:39:21.512Z,98125.81
2023-02-04T08:41:51.337Z,98120.94
2023-02-04T08:44:19.571Z,98162.09
2023-02-04T08:46:47.878Z,98190.81
2023-02-04T08:49:16.134Z,98162.75
2023-02-04T08:51:44.429Z,98189.06
2023-02-04T08:54:19.215Z,98155.84
2023-02-04T08:56:47.408Z,98203.09
2023-02-04T08:59:15.622Z,98206.63
2023-02-04T09:01:49.658Z,98213.50
2023-02-04T09:07:35.945Z,98205.22
2023-02-04T09:10:05.951Z,98181.19
2023-02-04T09:12:34.977Z,98179.66
2023-02-04T09:15:03.196Z,98201.47
2023-02-04T09:17:31.405Z,98212.22
2023-02-04T09:19:59.959Z,98189.19
2023-02-04T09:22:28.238Z,98174.72
2023-02-04T09:24:56.509Z,98214.91
2023-02-04T09:27:26.052Z,98182.94
2023-02-04T09:29:54.239Z,98180.22
2023-02-04T09:32:22.534Z,98219.22
2023-02-04T09:34:50.773Z,98251.31
2023-02-04T09:37:19.054Z,98220.88
2023-02-04T09:39:47.233Z,98229.38
2023-02-04T09:42:35.803Z,98286.13
2023-02-04T09:45:04.295Z,98231.25
2023-02-04T09:47:32.943Z,98232.00
2023-02-04T09:50:01.214Z,98218.69
2023-02-04T09:52:30.317Z,98223.84
2023-02-04T09:54:58.513Z,98188.38
2023-02-04T09:57:30.343Z,98210.59
2023-02-04T09:59:58.546Z,98247.78
2023-02-04T10:02:38.234Z,98220.56
2023-02-04T10:05:10.913Z,98236.72
2023-02-04T10:07:39.310Z,98227.19
2023-02-04T10:10:07.994Z,98166.34
2023-02-04T10:12:37.708Z,98245.31
2023-02-04T10:15:11.022Z,98247.13
2023-02-04T10:17:39.327Z,98273.09
2023-02-04T10:20:13.834Z,98231.66
2023-02-04T10:22:42.097Z,98215.03
2023-02-04T10:25:15.227Z,98277.78
2023-02-04T10:27:52.090Z,98268.63
2023-02-04T10:30:22.738Z,98263.78
2023-02-04T10:32:51.511Z,98300.72
2023-02-04T10:35:22.098Z,98267.13
2023-02-04T10:38:04.953Z,98260.06
2023-02-04T10:40:35.474Z,98257.06
2023-02-04T10:43:11.563Z,98262.00
2023-02-04T10:45:40.282Z,98177.66
2023-02-04T10:48:16.956Z,98277.94
2023-02-04T10:50:46.606Z,98221.25
2023-02-04T10:53:34.881Z,98398.91
2023-02-04T10:56:03.535Z,98283.34
2023-02-04T10:58:33.651Z,98282.06
2023-02-04T11:01:02.773Z,98212.66
2023-02-04T11:03:40.521Z,98256.50
2023-02-04T11:06:24.488Z,98264.53
2023-02-04T11:08:54.660Z,98288.31
2023-02-04T11:11:26.243Z,98263.22
2023-02-04T11:14:04.312Z,98174.09
2023-02-04T11:16:35.615Z,98277.41
2023-02-04T11:19:06.791Z,98282.91
2023-02-04T11:21:45.661Z,98261.84
2023-02-04T11:24:26.468Z,98262.75
2023-02-04T11:27:08.975Z,98236.59
2023-02-04T11:29:39.584Z,98269.50
2023-02-04T11:32:27.884Z,98257.72
2023-02-04T11:34:57.382Z,98220.72
2023-02-04T11:37:40.597Z,98232.50
2023-02-04T11:40:28.497Z,98227.00
2023-02-04T11:43:02.814Z,98283.16
2023-02-04T11:45:37.975Z,98248.97
2023-02-04T11:48:14.929Z,98263.00
2023-02-04T11:50:45.153Z,98310.72
2023-02-04T11:53:13.653Z,98246.63
2023-02-04T11:55:47.863Z,98258.38
2023-02-04T11:58:19.943Z,98247.06
2023-02-04T12:00:49.650Z,98306.38
2023-02-04T12:03:26.928Z,98282.50
2023-02-04T12:05:56.118Z,98239.69
2023-02-04T12:08:33.641Z,98277.38
2023-02-04T12:11:07.524Z,98261.38
2023-02-04T12:13:49.580Z,98266.34
2023-02-04T12:16:19.683Z,98255.84
2023-02-04T12:18:48.270Z,98291.25
2023-02-04T12:21:16.774Z,98272.56
2023-02-04T12:23:44.908Z,98252.44
2023-02-04T12:26:13.921Z,98304.31
2023-02-04T12:28:42.215Z,98303.03
2023-02-04T12:31:10.555Z,98232.94
2023-02-04T12:33:40.809Z,98285.22
2023-02-04T12:36:10.052Z,98288.75
2023-02-04T12:38:38.383Z,98227.72
2023-02-04T12:41:06.657Z,98305.38
2023-02-04T12:43:34.938Z,98279.97
2023-02-04T12:46:03.184Z,98285.81
2023-02-04T12:48:33.048Z,98251.00
2023-02-04T12:51:03.096Z,98273.03
2023-02-04T12:53:31.673Z,98230.56
2023-02-04T12:56:04.847Z,98282.81
2023-02-04T12:58:33.052Z,98267.91
2023-02-04T13:01:03.907Z,98277.81
2023-02-04T13:03:36.374Z,98253.75
2023-02-04T13:06:12.256Z,98271.59
2023-02-04T13:08:40.526Z,98286.75
2023-02-04T13:11:08.718Z,98273.44
2023-02-04T13:13:36.988Z,98221.72
2023-02-04T13:16:05.683Z,98300.69
2023-02-04T13:18:34.565Z,98252.53
2023-02-04T13:21:02.834Z,98286.09
2023-02-04T13:23:32.712Z,98316.63
2023-02-04T13:26:01.129Z,98264.75
2023-02-04T13:28:29.400Z,98275.88
2023-02-04T13:30:57.759Z,98275.47
2023-02-04T13:33:26.007Z,98282.06
2023-02-04T13:35:54.404Z,98306.88
2023-02-04T13:38:22.644Z,98305.50
2023-02-04T13:40:52.290Z,98304.34
2023-02-04T13:43:20.519Z,98289.44
2023-02-04T13:45:49.093Z,98316.97
2023-02-04T13:48:17.649Z,98272.34
2023-02-04T13:50:46.167Z,98313.28
2023-02-04T13:53:14.370Z,98302.59
2023-02-04T13:55:42.567Z,98316.69
2023-02-04T13:58:12.152Z,98294.59
2023-02-04T14:00:40.425Z,98279.06
2023-02-04T14:03:08.692Z,98274.38
2023-02-04T14:05:36.970Z,98314.53
2023-02-04T14:08:05.396Z,98281.88
2023-02-04T14:10:33.968Z,98287.88
2023-02-04T14:13:02.634Z,98324.13
2023-02-04T14:15:34.666Z,98273.75
2023-02-04T14:18:04.582Z,98272.34
2023-02-04T14:20:33.035Z,98267.25
2023-02-04T14:23:01.619Z,98205.16
2023-02-04T14:25:29.848Z,98303.09
2023-02-04T14:28:00.171Z,98331.75
2023-02-04T14:30:32.210Z,98321.22
2023-02-04T14:33:01.479Z,98331.25
2023-02-04T14:35:29.804Z,98291.06
2023-02-04T14:37:58.840Z,98296.97
2023-02-04T14:40:27.047Z,98356.88
2023-02-04T14:42:55.535Z,98356.59
2023-02-04T14:45:23.740Z,98312.66
2023-02-04T14:47:56.959Z,98323.16
2023-02-04T14:50:27.177Z,98256.06
2023-02-04T14:52:56.952Z,98313.38
2023-02-04T14:55:25.317Z,98347.88
2023-02-04T14:57:54.109Z,98382.25
2023-02-04T15:00:22.947Z,98347.25
2023-02-04T15:02:52.588Z,98201.94
2023-02-04T15:05:20.957Z,98292.91
2023-02-04T15:07:49.188Z,98332.81
2023-02-04T15:10:17.760Z,98371.66
2023-02-04T15:12:46.130Z,98358.28
2023-02-04T15:15:14.328Z,98341.06
2023-02-04T15:17:42.549Z,98341.63
2023-02-04T15:20:13.282Z,98345.31
2023-02-04T15:22:41.513Z,98172.41
2023-02-04T15:25:11.161Z,98328.94
2023-02-04T15:27:39.512Z,98367.59
2023-02-04T15:30:08.323Z,98329.38
2023-02-04T15:32:37.370Z,98333.97
2023-02-04T15:35:08.219Z,98363.34
2023-02-04T15:37:37.747Z,98456.78
2023-02-04T15:40:08.676Z,98342.91
2023-02-04T15:42:37.202Z,98111.09
2023-02-04T15:45:06.547Z,98353.22
2023-02-04T15:47:34.754Z,98359.38
2023-02-04T15:50:04.025Z,98395.06
2023-02-04T15:52:32.403Z,98368.91
2023-02-04T15:55:01.955Z,98384.69
2023-02-04T15:57:30.208Z,98314.38
2023-02-04T15:59:58.998Z,98349.66
2023-02-04T16:02:27.299Z,98376.91
2023-02-04T16:04:55.532Z,98409.00
2023-02-04T16:07:23.817Z,98393.53
2023-02-04T16:09:52.813Z,98356.88
2023-02-04T16:12:22.397Z,98362.50
2023-02-04T16:14:50.956Z,98374.91
2023-02-04T16:17:19.253Z,98406.34
2023-02-04T16:19:47.478Z,98369.41
2023-02-04T16:22:15.772Z,98376.50
2023-02-04T16:24:44.758Z,98363.41
2023-02-04T16:27:13.015Z,98401.72
2023-02-04T16:29:42.551Z,98414.22
2023-02-04T16:32:10.815Z,98414.50
2023-02-04T16:34:39.017Z,98353.38
2023-02-04T16:37:07.361Z,98411.97
2023-02-04T16:39:36.864Z,98404.13
2023-02-04T16:42:06.414Z,98402.69
2023-02-04T16:44:34.717Z,98394.75
2023-02-04T16:47:04.420Z,98366.19
2023-02-04T16:49:32.760Z,98369.72
2023-02-04T16:52:01.573Z,98407.22
2023-02-04T16:54:30.041Z,98422.72
2023-02-04T16:57:00.241Z,98412.38
2023-02-04T16:59:29.314Z,98408.53
2023-02-04T17:02:00.554Z,98326.47
2023-02-04T17:04:32.803Z,98389.22
2023-02-04T17:07:31.111Z,98410.38
2023-02-04T17:09:59.254Z,98396.25
2023-02-04T17:12:27.489Z,98456.72
2023-02-04T17:14:56.042Z,98420.16
2023-02-04T17:17:24.293Z,98433.13
2023-02-04T17:19:53.827Z,98483.78
2023-02-04T17:22:22.085Z,98419.47
2023-02-04T17:24:51.891Z,98484.31
2023-02-04T17:27:20.684Z,98432.28
2023-02-04T17:29:51.069Z,98428.00
2023-02-04T17:32:19.444Z,98448.28
2023-02-04T17:34:47.622Z,98433.72
2023-02-04T17:37:17.183Z,98408.44
2023-02-04T17:39:45.366Z,98453.25
2023-02-04T17:42:13.563Z,98397.13
2023-02-04T17:44:41.770Z,98473.34
2023-02-04T17:47:10.037Z,98464.59
2023-02-04T17:49:38.386Z,98430.78
2023-02-04T17:52:06.629Z,98390.72
2023-02-04T17:54:36.514Z,98414.25
2023-02-04T17:57:19.022Z,98430.66
2023-02-04T17:59:48.121Z,98418.44
2023-02-04T18:02:26.745Z,98425.59
2023-02-04T18:04:57.348Z,98448.94
2023-02-04T18:07:26.391Z,98452.00
2023-02-04T18:10:11.366Z,98414.91
2023-02-04T18:12:39.576Z,98505.28
2023-02-04T18:15:29.247Z,98443.16
2023-02-04T18:18:02.576Z,98431.66
2023-02-04T18:20:31.072Z,98465.69
2023-02-04T18:23:04.416Z,98462.44
2023-02-04T18:25:34.688Z,98424.41
2023-02-04T18:28:11.079Z,98478.50
2023-02-04T18:30:39.597Z,98498.28
2023-02-04T18:33:16.983Z,98441.44
2023-02-04T18:35:48.166Z,98439.13
2023-02-04T18:38:24.810Z,98463.16
2023-02-04T18:41:02.572Z,98416.75
2023-02-04T18:43:37.593Z,98341.88
2023-02-04T18:46:24.544Z,98455.44
2023-02-04T18:49:06.496Z,98440.19
2023-02-04T18:51:40.192Z,98453.06
2023-02-04T18:54:35.660Z,98436.06
2023-02-04T18:57:35.841Z,98461.00
2023-02-04T19:00:34.451Z,98390.84
2023-02-04T19:03:26.096Z,98438.28
2023-02-04T19:05:57.598Z,98465.09
2023-02-04T19:08:29.660Z,98461.72
2023-02-04T19:11:01.152Z,98442.25
2023-02-04T19:13:39.968Z,98426.84
2023-02-04T19:16:23.326Z,98420.06
2023-02-04T19:18:52.398Z,98481.47
2023-02-04T19:21:28.794Z,98425.53
2023-02-04T19:24:06.160Z,98430.53
2023-02-04T19:26:37.032Z,98624.69
2023-02-04T19:29:41.253Z,98460.78
2023-02-04T19:32:28.860Z,98479.78
2023-02-04T19:35:02.153Z,98464.66
2023-02-04T19:37:57.495Z,98469.06
2023-02-04T19:40:31.773Z,98300.47
2023-02-04T19:43:20.563Z,98455.88
2023-02-04T19:45:51.637Z,98471.47
2023-02-04T19:48:26.236Z,98514.63
2023-02-04T19:50:54.716Z,98447.22
2023-02-04T19:53:27.958Z,98451.22
2023-02-04T19:55:56.742Z,98477.34
2023-02-04T19:58:29.342Z,98508.91
2023-02-04T20:01:03.909Z,98484.94
2023-02-04T20:03:43.087Z,98379.31
2023-02-04T20:06:31.713Z,98443.97
2023-02-04T20:09:03.664Z,98467.88
2023-02-04T20:11:56.159Z,98430.13
2023-02-04T20:14:41.898Z,98471.28
2023-02-04T20:17:35.885Z,98488.41
2023-02-04T20:20:26.415Z,98372.06
2023-02-04T20:22:57.001Z,98477.06
2023-02-04T20:25:48.011Z,98490.44
2023-02-04T20:28:26.662Z,98450.09
2023-02-04T20:30:57.958Z,98525.25
2023-02-04T20:33:35.060Z,98541.06
2023-02-04T20:36:38.506Z,98503.28
2023-02-04T20:39:40.166Z,98517.66
2023-02-04T20:42:42.745Z,98548.94
2023-02-04T20:45:26.326Z,98520.75
2023-02-04T20:47:58.254Z,98549.59
2023-02-04T20:50:41.606Z,98527.25
2023-02-04T20:53:24.507Z,98530.88
2023-02-04T20:55:56.317Z,98386.63
2023-02-04T20:58:28.716Z,98526.16
2023-02-04T21:00:57.316Z,98492.13
2023-02-04T21:03:29.791Z,98477.22
2023-02-04T21:06:01.153Z,98528.81
2023-02-04T21:08:45.269Z,98510.94
2023-02-04T21:11:13.657Z,98513.19
2023-02-04T21:13:42.033Z,98580.13
2023-02-04T21:16:10.847Z,98563.25
2023-02-04T21:18:39.789Z,98563.47
2023-02-04T21:21:10.793Z,98496.28
2023-02-04T21:23:39.307Z,98506.31
2023-02-04T21:26:08.269Z,98541.94
2023-02-04T21:28:36.629Z,98538.47
2023-02-04T21:31:05.454Z,98545.00
2023-02-04T21:33:33.799Z,98519.75
2023-02-04T21:36:02.019Z,98577.00
2023-02-04T21:38:31.639Z,98538.28
2023-02-04T21:40:59.823Z,98513.28
2023-02-04T21:43:28.013Z,98512.69
2023-02-04T21:45:56.233Z,98569.91
2023-02-04T21:48:25.577Z,98525.03
2023-02-04T21:50:53.987Z,98526.78
2023-02-04T21:53:22.262Z,98575.91
2023-02-04T21:55:51.794Z,98520.56
2023-02-04T21:58:19.929Z,98545.13
2023-02-04T22:00:48.078Z,98570.91
2023-02-04T22:03:17.404Z,98534.81
2023-02-04T22:05:46.407Z,98516.72
2023-02-04T22:08:14.561Z,98572.13
2023-02-04T22:10:42.913Z,98547.59
2023-02-04T22:13:30.009Z,98580.78
2023-02-04T22:15:58.237Z,98561.59
2023-02-04T22:18:26.500Z,98545.34
2023-02-04T22:20:54.726Z,98605.63
2023-02-04T22:23:22.990Z,98563.66
2023-02-04T22:25:51.188Z,98541.56
2023-02-04T22:28:20.788Z,98503.06
2023-02-04T22:30:49.150Z,98486.94
2023-02-04T22:33:17.382Z,98532.84
2023-02-04T22:35:46.016Z,98508.75
2023-02-04T22:38:14.200Z,98527.00
2023-02-04T22:40:42.406Z,98592.69
2023-02-04T22:43:10.646Z,98493.25
2023-02-04T22:45:40.180Z,98500.03
2023-02-04T22:48:08.384Z,98513.44
2023-02-04T22:50:36.582Z,98524.00
2023-02-04T22:53:04.935Z,98561.75
2023-02-04T22:55:33.437Z,98545.13
2023-02-04T22:58:01.858Z,98474.53
2023-02-04T23:00:30.126Z,98556.22
2023-02-04T23:05:55.544Z,98568.47
2023-02-04T23:08:24.069Z,98593.47
2023-02-04T23:10:52.340Z,98589.88
2023-02-04T23:13:20.881Z,98600.03
2023-02-04T23:15:49.168Z,98559.59
2023-02-04T23:18:18.744Z,98552.91
2023-02-04T23:20:47.003Z,98553.97
2023-02-04T23:23:17.585Z,98243.16
2023-02-04T23:25:46.688Z,98512.38
2023-02-04T23:28:15.371Z,98488.69
2023-02-04T23:30:43.892Z,98569.03
2023-02-04T23:33:12.201Z,98500.28
2023-02-04T23:35:41.773Z,98533.84
2023-02-04T23:38:11.096Z,98545.28
2023-02-04T23:40:39.295Z,98539.47
2023-02-04T23:43:08.845Z,98544.91
2023-02-04T23:45:38.816Z,98484.75
2023-02-04T23:48:08.004Z,98555.81
2023-02-04T23:50:36.195Z,98505.66
2023-02-04T23:53:05.817Z,98520.06
2023-02-04T23:55:34.437Z,98568.16
2023-02-04T23:58:02.914Z,98537.97
